Time;durP1;ratioP1;P1;durP2;ratioP2;P2;SDS_P1;SDS_P2;PMS_P1;PMS_P2;Temp;Humidity;BMP_temperature;BMP_pressure;BME280_temperature;BME280_humidity;BME280_pressure;Samples;Min_cycle;Max_cycle;Signal;HPM_P1;HPM_P2
2022/08/22 00:01:06;;;;;;;0.30;0.30;;;15.80;99.90;;;;;;5098803;28;20030;-78
2022/08/22 00:04:06;;;;;;;5.90;0.93;;;15.90;99.90;;;;;;5099211;28;20039;-76
2022/08/22 00:06:51;;;;;;;0.65;0.65;;;15.90;99.90;;;;;;5125019;28;20106;-74
2022/08/22 00:09:37;;;;;;;0.22;0.22;;;15.90;99.90;;;;;;5125734;28;20460;-75
2022/08/22 00:12:27;;;;;;;0.30;0.30;;;16.00;99.90;;;;;;5117262;28;20075;-82
2022/08/22 00:15:18;;;;;;;0.22;0.22;;;16.00;99.90;;;;;;5097900;28;20062;-73
2022/08/22 00:18:21;;;;;;;0.50;0.50;;;16.00;99.90;;;;;;5097587;28;20074;-74
2022/08/22 00:21:02;;;;;;;0.20;0.20;;;16.30;99.90;;;;;;5116670;28;20106;-78
2022/08/22 00:23:52;;;;;;;0.77;0.55;;;16.40;99.90;;;;;;5116725;28;20448;-73
2022/08/22 00:26:43;;;;;;;0.20;0.20;;;16.40;99.90;;;;;;5116534;28;20110;-74
2022/08/22 00:29:14;;;;;;;0.70;0.60;;;16.60;99.90;;;;;;5116284;28;20098;-75
2022/08/22 00:31:45;;;;;;;0.38;0.38;;;16.50;99.90;;;;;;5116427;28;20027;-82
2022/08/22 00:34:32;;;;;;;0.57;0.50;;;16.60;99.90;;;;;;5116780;28;20027;-73
2022/08/22 00:37:20;;;;;;;3.20;1.10;;;16.60;99.90;;;;;;5116622;28;20148;-80
2022/08/22 00:39:57;;;;;;;0.63;0.63;;;16.60;99.90;;;;;;5098432;28;20153;-83
2022/08/22 00:42:50;;;;;;;0.82;0.70;;;16.60;99.90;;;;;;5098249;28;20027;-78
2022/08/22 00:45:51;;;;;;;0.70;0.70;;;16.70;99.90;;;;;;5116264;28;20027;-73
2022/08/22 00:48:41;;;;;;;4.95;0.95;;;16.70;99.90;;;;;;5116152;28;20031;-79
2022/08/22 00:51:23;;;;;;;0.25;0.25;;;16.60;99.90;;;;;;5098318;28;20027;-77
2022/08/22 00:53:51;;;;;;;0.30;0.30;;;16.70;99.90;;;;;;5115961;28;20098;-74
2022/08/22 00:56:46;;;;;;;0.30;0.30;;;16.70;99.90;;;;;;5129977;28;20080;-75
2022/08/22 01:00:03;;;;;;;0.98;0.30;;;16.60;99.90;;;;;;5127006;28;20040;-79
2022/08/22 01:02:46;;;;;;;1.05;1.02;;;16.60;99.90;;;;;;5131604;28;20106;-78
2022/08/22 01:05:28;;;;;;;0.75;0.75;;;16.50;99.90;;;;;;5129132;28;20489;-72
2022/08/22 01:08:21;;;;;;;1.65;0.65;;;16.40;99.90;;;;;;5132541;28;20020;-75
2022/08/22 01:10:55;;;;;;;0.47;0.47;;;16.40;99.90;;;;;;5118480;28;20023;-74
2022/08/22 01:14:01;;;;;;;0.28;0.28;;;16.40;99.90;;;;;;5101891;28;20106;-77
2022/08/22 01:17:00;;;;;;;0.17;0.17;;;16.30;99.90;;;;;;5085606;28;20044;-83
2022/08/22 01:19:26;;;;;;;;;;;16.20;99.90;;;;;;5116175;28;20081;-80
2022/08/22 01:22:22;;;;;;;0.38;0.30;;;16.10;99.90;;;;;;5115738;28;19911;-81
2022/08/22 01:25:19;;;;;;;0.43;0.43;;;15.90;99.90;;;;;;5115518;28;20019;-74
2022/08/22 01:28:10;;;;;;;1.60;1.50;;;15.80;99.90;;;;;;5097227;28;20019;-72
2022/08/22 01:30:45;;;;;;;3.53;1.55;;;15.70;99.90;;;;;;5115463;28;20023;-73
2022/08/22 01:33:49;;;;;;;0.43;0.40;;;15.60;99.90;;;;;;5115483;28;20028;-75
2022/08/22 01:36:15;;;;;;;0.25;0.25;;;15.50;99.90;;;;;;5083821;28;20099;-80
2022/08/22 01:39:12;;;;;;;0.25;0.25;;;15.40;99.90;;;;;;5097079;28;20027;-77
2022/08/22 01:42:04;;;;;;;3.33;1.92;;;15.40;99.90;;;;;;5115097;28;20022;-75
2022/08/22 01:44:53;;;;;;;0.73;0.73;;;15.20;99.90;;;;;;5110934;28;20377;-75
2022/08/22 01:47:33;;;;;;;0.50;0.50;;;15.20;99.90;;;;;;5115098;28;20019;-82
2022/08/22 01:50:10;;;;;;;2.85;0.32;;;15.20;99.90;;;;;;5115020;28;20112;-75
2022/08/22 01:53:00;;;;;;;0.40;0.35;;;15.10;99.90;;;;;;5114924;28;20015;-84
2022/08/22 01:56:08;;;;;;;0.75;0.75;;;15.10;99.90;;;;;;5115085;28;20042;-81
2022/08/22 01:58:37;;;;;;;1.38;1.27;;;15.00;99.90;;;;;;5096656;28;20031;-81
2022/08/22 02:01:03;;;;;;;0.43;0.43;;;15.00;99.90;;;;;;5114817;28;20160;-78
2022/08/22 02:03:50;;;;;;;1.15;1.13;;;14.90;99.90;;;;;;5114792;28;20582;-81
2022/08/22 02:06:32;;;;;;;0.90;0.25;;;14.90;99.90;;;;;;5114630;28;20487;-73
2022/08/22 02:09:07;;;;;;;1.50;0.55;;;14.80;99.90;;;;;;5096763;28;20023;-81
2022/08/22 02:11:51;;;;;;;0.52;0.52;;;14.80;99.90;;;;;;5114748;28;20079;-79
2022/08/22 02:15:01;;;;;;;0.22;0.22;;;14.70;99.90;;;;;;5097361;28;20020;-79
2022/08/22 02:17:53;;;;;;;0.43;0.43;;;14.60;99.90;;;;;;5122290;28;20027;-73
2022/08/22 02:20:19;;;;;;;0.52;0.52;;;14.50;99.90;;;;;;5097896;28;20369;-73
2022/08/22 02:23:06;;;;;;;1.50;1.00;;;14.50;99.90;;;;;;5116263;28;20073;-73
2022/08/22 02:26:10;;;;;;;0.20;0.20;;;14.50;99.90;;;;;;5116099;28;20024;-73
2022/08/22 02:28:36;;;;;;;0.70;0.47;;;14.40;99.90;;;;;;5074151;28;20063;-73
2022/08/22 02:31:05;;;;;;;0.70;0.70;;;14.40;99.90;;;;;;5114446;28;20019;-73
2022/08/22 02:33:39;;;;;;;0.52;0.52;;;14.40;99.90;;;;;;5096252;28;20387;-84
2022/08/22 02:36:19;;;;;;;0.55;0.55;;;14.30;99.90;;;;;;5099466;28;20023;-76
2022/08/22 02:38:53;;;;;;;;;;;14.20;99.90;;;;;;5098430;28;20114;-82
2022/08/22 02:41:56;;;;;;;0.73;0.73;;;14.20;99.90;;;;;;5117070;28;19926;-72
2022/08/22 02:44:51;;;;;;;0.40;0.40;;;14.10;99.90;;;;;;5128596;28;20111;-74
2022/08/22 02:47:23;;;;;;;0.30;0.30;;;14.10;99.90;;;;;;5077854;28;20049;-75
2022/08/22 02:50:07;;;;;;;1.10;0.95;;;14.10;99.90;;;;;;5126557;28;20008;-75
2022/08/22 02:52:58;;;;;;;1.30;1.20;;;14.10;99.90;;;;;;5127429;28;20070;-74
2022/08/22 02:55:41;;;;;;;5.15;1.75;;;14.00;99.90;;;;;;5124954;28;20040;-73
2022/08/22 02:58:22;;;;;;;0.70;0.40;;;14.00;99.90;;;;;;5126935;28;20077;-72
2022/08/22 03:00:56;;;;;;;0.40;0.40;;;13.90;99.90;;;;;;5124940;28;20020;-73
2022/08/22 03:03:27;;;;;;;0.32;0.32;;;13.90;99.90;;;;;;5125969;28;20024;-78
2022/08/22 03:06:04;;;;;;;0.55;0.45;;;13.90;99.90;;;;;;5117243;28;20031;-74
2022/08/22 03:08:39;;;;;;;0.30;0.30;;;13.80;99.90;;;;;;5122447;28;20103;-76
2022/08/22 03:11:27;;;;;;;0.30;0.30;;;13.80;99.90;;;;;;5122375;28;20024;-73
2022/08/22 03:14:17;;;;;;;0.28;0.28;;;13.80;99.90;;;;;;5110631;28;20026;-73
2022/08/22 03:17:15;;;;;;;0.20;0.20;;;13.80;99.90;;;;;;5123404;28;20027;-77
2022/08/22 03:20:11;;;;;;;0.73;0.73;;;13.80;99.90;;;;;;5107685;28;20044;-72
2022/08/22 03:22:42;;;;;;;0.52;0.52;;;13.70;99.90;;;;;;5125934;28;20027;-74
2022/08/22 03:25:20;;;;;;;0.30;0.30;;;13.70;99.90;;;;;;5105270;28;20058;-79
2022/08/22 03:28:07;;;;;;;0.45;0.45;;;13.60;99.90;;;;;;5125755;28;20034;-77
2022/08/22 03:30:56;;;;;;;0.35;0.35;;;13.50;99.90;;;;;;5104566;28;20083;-78
2022/08/22 03:33:25;;;;;;;0.32;0.32;;;13.40;99.90;;;;;;5124448;28;20030;-72
2022/08/22 03:36:22;;;;;;;0.73;0.65;;;13.40;99.90;;;;;;5119745;28;20099;-76
2022/08/22 03:39:03;;;;;;;0.38;0.38;;;13.40;99.90;;;;;;5122248;28;20061;-75
2022/08/22 03:42:30;;;;;;;0.73;0.73;;;13.30;99.90;;;;;;5124468;28;20023;-72
2022/08/22 03:45:13;;;;;;;1.35;1.25;;;13.40;99.90;;;;;;5087633;28;20055;-76
2022/08/22 03:47:48;;;;;;;0.50;0.50;;;13.30;99.90;;;;;;5120435;28;20487;-77
2022/08/22 03:50:50;;;;;;;1.80;0.70;;;13.20;99.90;;;;;;5124316;28;20027;-74
2022/08/22 03:53:31;;;;;;;1.40;1.13;;;13.20;99.90;;;;;;5124730;28;20040;-73
2022/08/22 03:56:20;;;;;;;0.73;0.73;;;13.20;99.90;;;;;;5127171;28;20027;-76
2022/08/22 03:59:11;;;;;;;;;;;13.10;99.90;;;;;;5108183;28;20049;-75
2022/08/22 04:02:04;;;;;;;0.50;0.50;;;13.10;99.90;;;;;;5124053;28;20393;-78
2022/08/22 04:04:58;;;;;;;0.88;0.40;;;13.00;99.90;;;;;;5104897;28;20472;-79
2022/08/22 04:07:43;;;;;;;0.40;0.40;;;13.00;99.90;;;;;;5124378;28;20028;-73
2022/08/22 04:10:50;;;;;;;1.80;1.17;;;12.90;99.90;;;;;;5108163;28;20081;-76
2022/08/22 04:13:48;;;;;;;0.77;0.40;;;12.80;99.90;;;;;;5101657;28;20472;-74
2022/08/22 04:16:33;;;;;;;4.03;1.48;;;12.80;99.90;;;;;;5120786;28;20034;-80
2022/08/22 04:19:37;;;;;;;0.93;0.52;;;12.80;99.90;;;;;;5120963;28;20472;-79
2022/08/22 04:22:14;;;;;;;0.40;0.40;;;12.80;99.90;;;;;;5080669;28;20040;-73
2022/08/22 04:24:58;;;;;;;4.22;0.40;;;12.70;99.90;;;;;;5122090;28;20472;-79
2022/08/22 04:27:42;;;;;;;1.05;0.60;;;12.70;99.90;;;;;;5122290;28;20019;-73
2022/08/22 04:30:31;;;;;;;5.40;0.80;;;12.70;99.90;;;;;;5125698;28;20027;-77
2022/08/22 04:33:08;;;;;;;0.68;0.68;;;12.70;99.90;;;;;;5125780;28;20076;-73
2022/08/22 04:35:43;;;;;;;0.95;0.30;;;12.70;99.90;;;;;;5117264;28;20020;-73
2022/08/22 04:38:29;;;;;;;0.70;0.70;;;12.80;99.90;;;;;;5116581;28;20069;-72
2022/08/22 04:41:23;;;;;;;1.38;1.27;;;12.80;99.90;;;;;;5098865;28;20023;-73
2022/08/22 04:44:21;;;;;;;0.20;0.20;;;12.70;99.90;;;;;;5117240;28;20023;-72
2022/08/22 04:46:58;;;;;;;0.52;0.52;;;12.70;99.90;;;;;;5100958;28;20518;-73
2022/08/22 04:49:34;;;;;;;1.58;1.15;;;12.80;99.90;;;;;;5105467;28;20032;-72
2022/08/22 04:52:26;;;;;;;0.60;0.60;;;12.80;99.90;;;;;;5110524;28;20019;-72
2022/08/22 04:55:27;;;;;;;0.68;0.68;;;12.80;99.90;;;;;;5129683;28;20122;-73
2022/08/22 04:58:24;;;;;;;0.70;0.70;;;12.80;99.90;;;;;;5127810;28;20030;-75
2022/08/22 05:01:17;;;;;;;0.82;0.82;;;12.80;99.90;;;;;;5128198;28;20036;-73
2022/08/22 05:04:00;;;;;;;0.20;0.20;;;12.80;99.90;;;;;;5126290;28;20062;-75
2022/08/22 05:06:30;;;;;;;1.10;0.98;;;12.80;99.90;;;;;;5110225;28;20488;-73
2022/08/22 05:09:01;;;;;;;0.50;0.50;;;12.80;99.90;;;;;;5130071;28;20020;-72
2022/08/22 05:11:29;;;;;;;2.00;0.98;;;12.90;99.90;;;;;;5128440;28;20027;-74
2022/08/22 05:14:04;;;;;;;0.50;0.50;;;12.90;99.90;;;;;;5132754;28;20077;-73
2022/08/22 05:16:37;;;;;;;0.45;0.45;;;12.90;99.90;;;;;;5133382;28;20023;-81
2022/08/22 05:19:18;;;;;;;1.13;1.10;;;13.00;99.90;;;;;;5131902;28;20038;-74
2022/08/22 05:21:46;;;;;;;1.77;0.88;;;13.00;99.90;;;;;;5125199;28;20405;-76
2022/08/22 05:24:36;;;;;;;1.17;0.85;;;13.10;99.90;;;;;;5120360;28;20035;-75
2022/08/22 05:27:19;;;;;;;8.60;0.85;;;13.20;99.90;;;;;;5109412;28;20020;-73
2022/08/22 05:29:49;;;;;;;0.77;0.77;;;13.40;99.90;;;;;;5127621;28;20034;-73
2022/08/22 05:33:16;;;;;;;0.98;0.80;;;13.50;99.90;;;;;;5108786;28;20023;-80
2022/08/22 05:35:46;;;;;;;0.98;0.95;;;13.50;99.90;;;;;;5052779;28;20029;-72
2022/08/22 05:38:16;;;;;;;2.85;1.45;;;13.60;99.90;;;;;;5052551;28;20057;-73
2022/08/22 05:40:48;;;;;;;1.42;0.60;;;13.70;99.90;;;;;;5085284;28;20124;-72
2022/08/22 05:43:15;;;;;;;1.15;0.80;;;13.80;99.90;;;;;;5096737;28;20016;-74
2022/08/22 05:45:45;;;;;;;0.50;0.50;;;13.90;99.90;;;;;;5114913;28;20458;-73
2022/08/22 05:48:15;;;;;;;;;;;14.10;99.90;;;;;;5115362;28;20024;-80
2022/08/22 05:50:48;;;;;;;0.38;0.38;;;14.20;99.90;;;;;;5115211;28;19923;-78
2022/08/22 05:53:38;;;;;;;0.75;0.65;;;14.30;99.90;;;;;;5114809;28;20050;-80
2022/08/22 05:56:12;;;;;;;0.30;0.30;;;14.50;99.90;;;;;;5114828;28;20028;-74
2022/08/22 05:58:38;;;;;;;2.40;0.70;;;14.60;99.90;;;;;;5114701;28;20024;-74
2022/08/22 06:01:22;;;;;;;3.15;0.50;;;14.80;99.90;;;;;;5114730;28;20403;-73
2022/08/22 06:04:10;;;;;;;0.32;0.32;;;15.00;99.90;;;;;;5096822;28;20097;-72
2022/08/22 06:06:46;;;;;;;2.47;1.15;;;15.20;99.90;;;;;;5096721;28;20024;-82
2022/08/22 06:09:43;;;;;;;0.93;0.93;;;15.40;99.90;;;;;;5114762;28;20026;-77
2022/08/22 06:12:21;;;;;;;0.68;0.50;;;15.60;99.90;;;;;;5096312;28;20028;-73
2022/08/22 06:15:05;;;;;;;0.30;0.30;;;15.70;99.90;;;;;;5114317;28;20365;-83
2022/08/22 06:17:41;;;;;;;2.50;0.73;;;15.80;99.90;;;;;;5096284;28;20073;-78
2022/08/22 06:20:09;;;;;;;0.50;0.50;;;16.00;99.90;;;;;;5114450;28;20039;-82
2022/08/22 06:22:46;;;;;;;1.23;0.80;;;16.20;99.90;;;;;;5096349;28;20015;-73
2022/08/22 06:25:15;;;;;;;0.55;0.55;;;16.30;99.90;;;;;;5114281;28;20104;-79
2022/08/22 06:27:43;;;;;;;0.65;0.52;;;16.50;99.90;;;;;;5096084;28;20057;-80
2022/08/22 06:30:13;;;;;;;3.28;1.52;;;16.60;99.90;;;;;;5114357;28;20384;-84
2022/08/22 06:32:44;;;;;;;3.22;1.83;;;16.70;99.90;;;;;;5114258;28;20445;-75
2022/08/22 06:38:23;;;;;;;0.93;0.93;;;16.90;99.90;;;;;;5114765;28;20073;-74
2022/08/22 06:40:53;;;;;;;0.35;0.32;;;16.90;99.90;;;;;;5114049;28;20102;-76
2022/08/22 06:43:21;;;;;;;0.80;0.80;;;17.10;99.90;;;;;;5114094;28;20107;-75
2022/08/22 06:45:48;;;;;;;1.38;1.15;;;17.10;99.90;;;;;;5113908;28;20072;-78
2022/08/22 06:48:21;;;;;;;0.73;0.60;;;17.10;99.90;;;;;;5113916;28;20028;-75
2022/08/22 06:50:52;;;;;;;2.03;0.60;;;17.10;99.90;;;;;;5114003;28;20072;-79
2022/08/22 06:53:22;;;;;;;0.65;0.65;;;17.20;99.90;;;;;;5113705;28;20047;-80
2022/08/22 06:55:53;;;;;;;11.63;4.85;;;17.10;99.90;;;;;;5113715;28;20023;-74
2022/08/22 06:58:31;;;;;;;3.20;1.30;;;17.20;99.90;;;;;;5113776;28;20023;-82
2022/08/22 07:01:01;;;;;;;2.90;0.93;;;17.30;99.90;;;;;;5113839;28;20016;-79
2022/08/22 07:03:35;;;;;;;1.40;1.08;;;17.50;99.90;;;;;;5114045;28;20704;-84
2022/08/22 07:06:02;;;;;;;1.50;0.60;;;17.60;99.90;;;;;;5113966;28;20023;-77
2022/08/22 07:08:33;;;;;;;3.53;2.25;;;17.60;99.90;;;;;;5113753;28;20380;-82
2022/08/22 07:11:23;;;;;;;1.10;0.93;;;17.70;99.90;;;;;;5113935;28;20026;-76
2022/08/22 07:14:11;;;;;;;1.00;0.95;;;19.00;99.90;;;;;;5113966;28;20046;-77
2022/08/22 07:16:53;;;;;;;3.63;0.70;;;18.10;99.90;;;;;;5093073;28;20069;-84
2022/08/22 07:19:44;;;;;;;0.55;0.55;;;18.20;99.90;;;;;;5095557;28;20034;-81
2022/08/22 07:22:20;;;;;;;0.60;0.60;;;18.30;99.90;;;;;;5095683;28;20031;-77
2022/08/22 07:25:09;;;;;;;1.25;0.93;;;18.40;99.90;;;;;;5115402;28;20024;-76
2022/08/22 07:27:52;;;;;;;0.40;0.25;;;18.50;99.90;;;;;;5099627;28;20549;-79
2022/08/22 07:30:21;;;;;;;0.35;0.35;;;18.70;99.90;;;;;;5117721;28;20024;-77
2022/08/22 07:32:54;;;;;;;0.20;0.20;;;18.80;99.90;;;;;;5099288;28;20026;-80
2022/08/22 07:35:20;;;;;;;0.22;0.22;;;18.90;99.90;;;;;;5118018;28;20425;-81
2022/08/22 07:37:55;;;;;;;0.47;0.20;;;19.00;99.90;;;;;;5117636;28;20019;-77
2022/08/22 07:40:34;;;;;;;0.55;0.40;;;19.20;99.90;;;;;;5099349;28;20059;-76
2022/08/22 07:43:12;;;;;;;0.43;0.35;;;19.50;99.90;;;;;;5117347;28;20016;-78
2022/08/22 07:45:56;;;;;;;0.70;0.70;;;19.60;99.90;;;;;;5098854;28;20051;-78
2022/08/22 07:48:27;;;;;;;0.30;0.30;;;19.70;99.90;;;;;;5117095;28;20016;-77
2022/08/22 07:51:05;;;;;;;0.28;0.20;;;19.70;99.90;;;;;;5117173;28;20027;-78
2022/08/22 07:53:43;;;;;;;0.43;0.43;;;19.80;99.90;;;;;;5098806;28;20035;-74
2022/08/22 07:56:22;;;;;;;0.47;0.47;;;19.90;99.90;;;;;;5117966;28;20118;-75
2022/08/22 07:58:53;;;;;;;3.30;1.17;;;19.90;99.90;;;;;;5117172;28;20061;-75
2022/08/22 08:01:24;;;;;;;2.55;0.85;;;20.00;99.90;;;;;;5117468;28;20047;-76
2022/08/22 08:04:06;;;;;;;0.43;0.32;;;20.10;99.90;;;;;;5117213;28;20030;-78
2022/08/22 08:06:33;;;;;;;0.22;0.22;;;20.30;99.90;;;;;;5117019;28;20476;-79
2022/08/22 08:09:00;;;;;;;1.27;0.63;;;20.50;99.90;;;;;;5099210;28;20484;-80
2022/08/22 08:11:29;;;;;;;0.45;0.30;;;20.50;99.90;;;;;;5117225;28;20020;-80
2022/08/22 08:14:00;;;;;;;0.45;0.30;;;21.10;99.90;;;;;;5117250;28;20388;-81
2022/08/22 08:16:31;;;;;;;0.30;0.30;;;21.00;99.90;;;;;;5117275;28;20023;-84
2022/08/22 08:19:00;;;;;;;0.65;0.32;;;21.40;99.90;;;;;;5099051;28;20042;-83
2022/08/22 08:21:45;;;;;;;1.15;0.70;;;21.50;99.90;;;;;;5101155;28;20019;-75
2022/08/22 08:24:15;;;;;;;3.22;0.40;;;21.90;99.90;;;;;;5098739;28;20448;-75
2022/08/22 08:28:33;;;;;;;;;;;23.20;99.90;;;;;;5098619;28;20031;-79
2022/08/22 08:29:29;;;;;;;0.32;0.32;;;24.50;93.60;;;;;;5116481;28;19911;-78
2022/08/22 08:31:57;;;;;;;2.78;0.88;;;25.70;81.90;;;;;;5116483;28;20393;-80
2022/08/22 08:34:25;;;;;;;0.20;0.20;;;26.60;72.40;;;;;;5098321;28;20050;-77
2022/08/22 08:36:56;;;;;;;0.47;0.47;;;26.90;68.90;;;;;;5115694;28;20115;-80
2022/08/22 08:39:36;;;;;;;0.85;0.60;;;27.30;65.70;;;;;;5098406;28;20119;-80
2022/08/22 08:45:50;;;;;;;0.28;0.28;;;27.30;64.50;;;;;;5115892;28;20035;-80
2022/08/22 08:48:42;;;;;;;0.40;0.40;;;28.00;63.30;;;;;;5115669;28;20036;-79
2022/08/22 08:51:26;;;;;;;0.43;0.43;;;28.30;63.10;;;;;;5097151;28;20032;-80
2022/08/22 08:54:13;;;;;;;8.63;2.05;;;28.60;62.70;;;;;;5115552;28;20047;-76
2022/08/22 08:57:02;;;;;;;2.20;0.28;;;28.90;59.50;;;;;;5115800;28;20114;-79
2022/08/22 08:59:27;;;;;;;1.48;1.38;;;29.70;58.60;;;;;;5115566;28;20447;-79
2022/08/22 09:02:23;;;;;;;0.28;0.28;;;29.80;59.60;;;;;;5097912;28;20053;-78
2022/08/22 09:05:07;;;;;;;0.20;0.20;;;28.80;58.00;;;;;;5097663;28;20027;-80
2022/08/22 09:07:54;;;;;;;0.40;0.40;;;29.10;57.70;;;;;;5115899;28;20024;-77
2022/08/22 09:10:51;;;;;;;0.30;0.30;;;29.30;58.70;;;;;;5097471;28;20114;-77
2022/08/22 09:13:36;;;;;;;0.73;0.73;;;30.10;56.80;;;;;;5097062;28;20024;-78
2022/08/22 09:16:23;;;;;;;2.55;0.47;;;29.60;54.00;;;;;;5097292;28;20031;-76
2022/08/22 09:18:57;;;;;;;1.15;0.80;;;29.10;55.50;;;;;;5097128;28;20664;-78
2022/08/22 09:21:26;;;;;;;1.95;1.52;;;29.20;55.00;;;;;;5115475;28;20022;-76
2022/08/22 09:23:52;;;;;;;9.98;1.98;;;29.00;56.90;;;;;;5097743;28;20024;-79
2022/08/22 09:26:55;;;;;;;0.60;0.60;;;28.60;55.90;;;;;;5121585;28;20053;-83
2022/08/22 09:29:41;;;;;;;0.20;0.20;;;28.30;56.80;;;;;;5095857;28;20023;-79
2022/08/22 09:32:34;;;;;;;0.50;0.50;;;28.20;56.70;;;;;;5104543;28;20055;-77
2022/08/22 09:35:45;;;;;;;0.43;0.43;;;28.20;56.70;;;;;;5097877;28;20019;-81
2022/08/22 09:38:33;;;;;;;1.10;0.43;;;27.70;57.90;;;;;;5084760;28;20320;-79
2022/08/22 09:41:07;;;;;;;0.10;0.10;;;26.90;58.40;;;;;;5116252;28;20073;-89
2022/08/22 09:44:12;;;;;;;0.40;0.40;;;26.80;59.10;;;;;;5115422;28;20080;-78
2022/08/22 09:46:50;;;;;;;0.43;0.43;;;26.50;59.70;;;;;;5115290;28;20030;-77
2022/08/22 09:49:45;;;;;;;0.30;0.30;;;26.30;59.70;;;;;;5096034;28;20019;-74
2022/08/22 09:52:14;;;;;;;0.20;0.20;;;26.20;59.50;;;;;;5062688;28;20024;-74
2022/08/22 09:54:44;;;;;;;0.35;0.35;;;26.60;59.80;;;;;;5114626;28;20074;-75
2022/08/22 09:57:37;;;;;;;0.32;0.17;;;27.10;58.90;;;;;;5114858;28;20430;-74
2022/08/22 10:00:14;;;;;;;3.65;0.43;;;27.20;58.50;;;;;;5114646;28;20039;-74
2022/08/22 10:03:00;;;;;;;0.20;0.20;;;27.30;58.40;;;;;;5096606;28;20380;-75
2022/08/22 10:05:35;;;;;;;0.50;0.40;;;27.20;60.00;;;;;;5098488;28;20063;-73
2022/08/22 10:08:25;;;;;;;0.40;0.32;;;27.00;59.80;;;;;;5096358;28;20023;-74
2022/08/22 10:10:56;;;;;;;4.50;1.27;;;26.60;59.80;;;;;;5096084;28;20480;-73
2022/08/22 10:13:30;;;;;;;1.85;1.60;;;26.50;61.30;;;;;;5114466;28;20491;-73
2022/08/22 10:16:28;;;;;;;0.57;0.40;;;27.00;61.00;;;;;;5115487;28;20030;-76
2022/08/22 10:19:00;;;;;;;0.22;0.22;;;26.80;61.40;;;;;;5114362;28;20392;-76
2022/08/22 10:21:34;;;;;;;2.90;1.90;;;26.90;62.50;;;;;;5116311;28;20349;-75
2022/08/22 10:24:18;;;;;;;0.30;0.30;;;26.70;61.70;;;;;;5116207;28;20023;-84
2022/08/22 10:26:51;;;;;;;15.32;1.15;;;26.70;63.20;;;;;;5095992;28;20023;-74
2022/08/22 10:29:39;;;;;;;0.47;0.47;;;26.70;60.40;;;;;;5095892;28;20027;-75
2022/08/22 10:32:33;;;;;;;0.38;0.15;;;26.80;60.70;;;;;;5095882;28;20059;-74
2022/08/22 10:35:12;;;;;;;0.65;0.50;;;26.90;60.90;;;;;;5095846;28;20551;-77
2022/08/22 10:37:47;;;;;;;0.47;0.47;;;27.20;61.90;;;;;;5095869;28;20032;-76
2022/08/22 10:40:20;;;;;;;0.10;0.10;;;27.60;60.00;;;;;;5114137;28;20573;-76
2022/08/22 10:43:12;;;;;;;0.30;0.30;;;27.80;59.40;;;;;;5114091;28;20024;-78
2022/08/22 10:45:59;;;;;;;0.10;0.10;;;27.90;59.10;;;;;;5113982;28;20028;-80
2022/08/22 10:48:27;;;;;;;1.05;0.40;;;27.60;58.70;;;;;;5095585;28;20028;-78
2022/08/22 10:51:11;;;;;;;0.20;0.20;;;27.60;60.00;;;;;;5114370;28;20032;-74
2022/08/22 10:54:25;;;;;;;0.25;0.25;;;27.80;59.10;;;;;;5113581;28;20056;-73
2022/08/22 10:57:13;;;;;;;0.32;0.20;;;27.90;60.60;;;;;;5078244;28;20035;-77
2022/08/22 10:59:50;;;;;;;0.63;0.35;;;28.40;57.90;;;;;;5101155;28;20028;-79
2022/08/22 11:02:40;;;;;;;0.35;0.30;;;28.20;57.00;;;;;;5120485;28;20019;-73
2022/08/22 11:05:18;;;;;;;0.17;0.17;;;28.40;56.60;;;;;;5115304;28;20103;-74
2022/08/22 11:07:52;;;;;;;0.30;0.20;;;28.70;55.90;;;;;;5101611;28;20035;-78
2022/08/22 11:10:52;;;;;;;0.10;0.10;;;28.90;56.50;;;;;;5101715;28;20028;-75
2022/08/22 11:13:25;;;;;;;0.20;0.20;;;30.00;55.40;;;;;;5101760;28;20031;-76
2022/08/22 11:16:12;;;;;;;0.55;0.30;;;30.00;56.60;;;;;;5118195;28;20019;-78
2022/08/22 11:18:59;;;;;;;0.63;0.28;;;30.00;52.00;;;;;;5121889;28;20031;-74
2022/08/22 11:21:31;;;;;;;0.20;0.20;;;30.30;51.10;;;;;;5120878;28;20224;-75
2022/08/22 11:24:11;;;;;;;1.02;0.38;;;30.70;48.70;;;;;;5121851;28;20024;-76
2022/08/22 11:26:42;;;;;;;0.52;0.28;;;30.60;50.90;;;;;;5114828;28;20028;-75
2022/08/22 11:29:52;;;;;;;0.20;0.20;;;30.90;51.20;;;;;;5119952;28;20028;-76
2022/08/22 11:33:01;;;;;;;0.95;0.40;;;31.30;49.10;;;;;;5037740;28;20105;-81
2022/08/22 11:35:40;;;;;;;0.80;0.60;;;31.40;48.60;;;;;;5012545;28;20379;-75
2022/08/22 11:38:23;;;;;;;0.32;0.10;;;31.20;50.10;;;;;;5103723;28;20387;-73
2022/08/22 11:41:19;;;;;;;0.30;0.30;;;31.20;50.50;;;;;;5096802;28;20116;-76
2022/08/22 11:43:47;;;;;;;0.30;0.30;;;31.00;50.30;;;;;;5115970;28;20020;-81
2022/08/22 11:46:19;;;;;;;0.15;0.15;;;31.10;48.50;;;;;;5095463;28;20115;-81
2022/08/22 11:48:51;;;;;;;5.57;1.05;;;31.20;48.60;;;;;;5114393;28;20424;-78
2022/08/22 11:51:52;;;;;;;1.00;0.57;;;31.10;49.50;;;;;;5114187;28;20094;-74
2022/08/22 11:54:43;;;;;;;0.40;0.40;;;30.80;48.70;;;;;;5115802;28;20046;-75
2022/08/22 11:57:18;;;;;;;0.60;0.60;;;30.90;50.20;;;;;;5076529;28;20087;-72
2022/08/22 11:59:44;;;;;;;0.28;0.28;;;30.90;48.60;;;;;;5095222;28;20398;-85
2022/08/22 12:02:23;;;;;;;2.50;1.95;;;31.30;51.20;;;;;;5113718;28;20020;-72
2022/08/22 12:04:57;;;;;;;0.30;0.30;;;31.60;47.80;;;;;;5113328;28;20020;-72
2022/08/22 12:07:37;;;;;;;0.40;0.30;;;32.00;46.90;;;;;;5113758;28;20099;-83
2022/08/22 12:10:13;;;;;;;0.63;0.40;;;31.80;46.60;;;;;;5095200;28;20020;-73
2022/08/22 12:12:59;;;;;;;0.10;0.10;;;31.90;49.10;;;;;;5122941;28;20038;-74
2022/08/22 12:15:55;;;;;;;0.40;0.40;;;32.50;47.30;;;;;;5117610;28;20015;-74
2022/08/22 12:18:33;;;;;;;0.75;0.43;;;32.50;46.70;;;;;;5101334;28;20028;-73
2022/08/22 12:21:23;;;;;;;0.25;0.25;;;32.50;47.20;;;;;;5102836;28;20031;-72
2022/08/22 12:24:40;;;;;;;0.30;0.30;;;32.70;48.00;;;;;;5116578;28;20023;-74
2022/08/22 12:27:35;;;;;;;0.30;0.30;;;33.20;48.70;;;;;;5071290;28;20032;-75
2022/08/22 12:30:30;;;;;;;0.30;0.30;;;33.20;46.80;;;;;;5116147;28;20110;-72
2022/08/22 12:33:37;;;;;;;0.55;0.30;;;33.50;43.80;;;;;;5098062;28;20031;-72
2022/08/22 12:36:27;;;;;;;1.35;0.20;;;33.90;43.80;;;;;;5116505;28;20020;-72
2022/08/22 12:38:59;;;;;;;0.13;0.10;;;33.10;44.30;;;;;;5116510;28;20061;-84
2022/08/22 12:41:55;;;;;;;0.40;0.28;;;33.30;44.80;;;;;;5116895;28;20028;-84
2022/08/22 12:44:29;;;;;;;0.28;0.10;;;34.20;44.40;;;;;;5098407;28;20027;-84
2022/08/22 12:47:15;;;;;;;0.50;0.50;;;34.40;42.10;;;;;;5098224;28;20027;-86
2022/08/22 12:49:56;;;;;;;0.22;0.22;;;33.90;41.60;;;;;;5116145;28;20476;-72
2022/08/22 12:52:52;;;;;;;3.30;0.63;;;34.00;43.40;;;;;;5116649;28;20024;-79
2022/08/22 12:55:35;;;;;;;0.20;0.20;;;34.50;41.20;;;;;;5097731;28;20131;-73
2022/08/22 12:58:43;;;;;;;0.82;0.20;;;35.10;41.90;;;;;;5097535;28;20020;-74
2022/08/22 13:01:11;;;;;;;0.70;0.32;;;35.50;42.00;;;;;;5097755;28;20048;-72
2022/08/22 13:03:47;;;;;;;0.30;0.30;;;35.10;39.60;;;;;;5097844;28;20072;-73
2022/08/22 13:06:35;;;;;;;0.32;0.32;;;35.20;41.00;;;;;;5115427;28;20041;-71
2022/08/22 13:09:09;;;;;;;0.20;0.20;;;34.70;41.30;;;;;;5097923;28;20040;-86
2022/08/22 13:11:40;;;;;;;0.30;0.30;;;34.40;42.30;;;;;;5116005;28;20020;-75
2022/08/22 13:14:08;;;;;;;5.05;0.40;;;33.90;41.20;;;;;;5116190;28;20031;-84
2022/08/22 13:16:41;;;;;;;0.17;0.17;;;33.30;43.00;;;;;;5115833;28;20031;-72
2022/08/22 13:19:21;;;;;;;0.22;0.22;;;33.60;41.40;;;;;;5115626;28;20032;-72
2022/08/22 13:21:56;;;;;;;0.45;0.45;;;33.70;42.00;;;;;;5097283;28;20114;-85
2022/08/22 13:24:29;;;;;;;0.38;0.30;;;33.90;43.40;;;;;;5115771;28;20051;-72
2022/08/22 13:27:01;;;;;;;0.30;0.30;;;33.40;42.20;;;;;;5115501;28;20028;-71
2022/08/22 13:29:40;;;;;;;1.50;0.70;;;32.30;42.60;;;;;;5115306;28;20073;-77
2022/08/22 13:32:08;;;;;;;0.17;0.10;;;32.60;46.40;;;;;;5115068;28;20020;-73
2022/08/22 13:34:39;;;;;;;0.65;0.20;;;33.30;44.00;;;;;;5115073;28;20023;-72
2022/08/22 13:37:10;;;;;;;0.45;0.20;;;33.70;43.00;;;;;;5115362;28;20099;-79
2022/08/22 13:39:40;;;;;;;0.30;0.30;;;33.60;42.10;;;;;;5115311;28;20031;-73
2022/08/22 13:42:13;;;;;;;3.88;0.40;;;33.30;43.60;;;;;;5097471;28;20023;-73
2022/08/22 13:44:46;;;;;;;1.13;0.63;;;32.40;43.60;;;;;;5115616;28;20030;-72
2022/08/22 13:47:18;;;;;;;0.20;0.20;;;32.10;46.60;;;;;;5115356;28;20019;-81
2022/08/22 13:50:03;;;;;;;0.85;0.60;;;32.00;43.90;;;;;;5115101;28;20023;-87
2022/08/22 13:52:37;;;;;;;0.47;0.47;;;31.90;43.60;;;;;;5097180;28;20023;-73
2022/08/22 13:55:15;;;;;;;0.25;0.20;;;32.20;42.60;;;;;;5093478;28;20040;-73
2022/08/22 13:57:47;;;;;;;0.55;0.30;;;32.70;42.00;;;;;;5094709;28;20028;-74
2022/08/22 14:00:34;;;;;;;0.30;0.30;;;33.10;40.10;;;;;;5094671;28;20040;-86
2022/08/22 14:03:26;;;;;;;0.45;0.40;;;33.80;40.60;;;;;;5094659;28;20020;-81
2022/08/22 14:05:56;;;;;;;0.40;0.15;;;34.20;42.00;;;;;;5094677;28;20051;-76
2022/08/22 14:08:30;;;;;;;1.92;0.47;;;33.40;40.80;;;;;;5094767;28;20105;-72
2022/08/22 14:11:16;;;;;;;0.20;0.20;;;32.40;41.10;;;;;;5094006;28;20020;-73